sensor_id;sensor_type;location;lat;lon;timestamp;noise_LAeq;noise_LA_min;noise_LA_max;noise_LA01;noise_LA95
66459;Laerm;70605;52.550;4.730;2023-12-07T00:00:10;43.07;42.12;43.75;;
66459;Laerm;70605;52.550;4.730;2023-12-07T00:00:20;43.11;42.26;43.89;;
66459;Laerm;70605;52.550;4.730;2023-12-07T00:00:31;43.09;42.07;44.15;;
66459;Laerm;70605;52.550;4.730;2023-12-07T00:00:41;43.15;42.38;43.82;;
66459;Laerm;70605;52.550;4.730;2023-12-07T00:00:51;43.11;42.33;43.90;;
66459;Laerm;70605;52.550;4.730;2023-12-07T00:01:02;43.17;42.25;44.01;;
66459;Laerm;70605;52.550;4.730;2023-12-07T00:01:12;43.15;42.29;44.02;;
66459;Laerm;70605;52.550;4.730;2023-12-07T00:01:22;43.19;42.26;44.02;;
66459;Laerm;70605;52.550;4.730;2023-12-07T00:01:32;43.25;42.43;44.19;;
66459;Laerm;70605;52.550;4.730;2023-12-07T00:01:44;43.15;42.18;43.87;;
66459;Laerm;70605;52.550;4.730;2023-12-07T00:01:54;43.11;42.42;43.99;;
66459;Laerm;70605;52.550;4.730;2023-12-07T00:02:05;43.14;42.18;43.97;;
66459;Laerm;70605;52.550;4.730;2023-12-07T00:02:15;43.17;42.09;43.98;;
66459;Laerm;70605;52.550;4.730;2023-12-07T00:02:25;43.12;42.30;44.04;;
66459;Laerm;70605;52.550;4.730;2023-12-07T00:02:35;43.11;42.08;44.00;;
66459;Laerm;70605;52.550;4.730;2023-12-07T00:02:46;43.12;42.03;44.09;;
66459;Laerm;70605;52.550;4.730;2023-12-07T00:02:56;43.22;42.30;44.03;;
66459;Laerm;70605;52.550;4.730;2023-12-07T00:03:06;43.10;42.47;43.81;;
66459;Laerm;70605;52.550;4.730;2023-12-07T00:03:17;43.15;42.10;44.00;;
66459;Laerm;70605;52.550;4.730;2023-12-07T00:03:27;43.16;42.24;43.88;;
66459;Laerm;70605;52.550;4.730;2023-12-07T00:03:37;43.18;42.25;43.93;;
66459;Laerm;70605;52.550;4.730;2023-12-07T00:03:47;43.19;42.35;44.01;;
66459;Laerm;70605;52.550;4.730;2023-12-07T00:03:58;43.16;42.21;43.84;;
66459;Laerm;70605;52.550;4.730;2023-12-07T00:04:08;43.17;42.23;44.02;;
66459;Laerm;70605;52.550;4.730;2023-12-07T00:04:18;43.15;42.28;43.92;;
66459;Laerm;70605;52.550;4.730;2023-12-07T00:04:28;43.13;42.05;44.04;;
66459;Laerm;70605;52.550;4.730;2023-12-07T00:04:39;43.13;42.40;44.17;;
66459;Laerm;70605;52.550;4.730;2023-12-07T00:04:49;43.13;42.16;44.06;;
66459;Laerm;70605;52.550;4.730;2023-12-07T00:04:59;43.11;42.28;43.88;;
66459;Laerm;70605;52.550;4.730;2023-12-07T00:05:09;43.08;42.32;44.06;;
66459;Laerm;70605;52.550;4.730;2023-12-07T00:05:19;43.09;42.05;44.01;;
66459;Laerm;70605;52.550;4.730;2023-12-07T00:05:30;43.07;42.24;43.89;;
66459;Laerm;70605;52.550;4.730;2023-12-07T00:05:40;43.06;42.14;43.79;;
66459;Laerm;70605;52.550;4.730;2023-12-07T00:05:51;43.08;42.09;43.99;;
66459;Laerm;70605;52.550;4.730;2023-12-07T00:06:01;43.11;42.38;44.05;;
66459;Laerm;70605;52.550;4.730;2023-12-07T00:06:11;43.11;42.19;44.04;;
66459;Laerm;70605;52.550;4.730;2023-12-07T00:06:21;43.10;42.29;43.97;;
66459;Laerm;70605;52.550;4.730;2023-12-07T00:06:32;43.08;41.85;43.96;;
66459;Laerm;70605;52.550;4.730;2023-12-07T00:06:42;43.12;42.19;43.88;;
66459;Laerm;70605;52.550;4.730;2023-12-07T00:06:52;43.12;42.28;44.19;;
66459;Laerm;70605;52.550;4.730;2023-12-07T00:07:03;43.15;42.29;44.09;;
66459;Laerm;70605;52.550;4.730;2023-12-07T00:07:13;43.22;42.22;44.33;;
66459;Laerm;70605;52.550;4.730;2023-12-07T00:07:23;43.17;42.04;43.96;;
66459;Laerm;70605;52.550;4.730;2023-12-07T00:07:33;43.16;42.21;43.99;;
66459;Laerm;70605;52.550;4.730;2023-12-07T00:07:44;43.17;42.27;44.18;;
66459;Laerm;70605;52.550;4.730;2023-12-07T00:07:54;43.26;42.20;44.10;;
66459;Laerm;70605;52.550;4.730;2023-12-07T00:08:04;43.23;42.24;44.00;;
66459;Laerm;70605;52.550;4.730;2023-12-07T00:08:15;43.15;42.29;43.76;;
66459;Laerm;70605;52.550;4.730;2023-12-07T00:08:25;43.12;42.37;43.96;;
66459;Laerm;70605;52.550;4.730;2023-12-07T00:08:35;43.10;42.02;43.90;;
66459;Laerm;70605;52.550;4.730;2023-12-07T00:08:45;43.18;42.30;44.00;;
66459;Laerm;70605;52.550;4.730;2023-12-07T00:08:56;43.14;42.18;43.93;;
66459;Laerm;70605;52.550;4.730;2023-12-07T00:09:06;43.21;42.37;44.06;;
66459;Laerm;70605;52.550;4.730;2023-12-07T00:09:16;43.17;42.38;44.07;;
66459;Laerm;70605;52.550;4.730;2023-12-07T00:09:27;43.18;42.33;43.83;;
66459;Laerm;70605;52.550;4.730;2023-12-07T00:09:37;43.15;42.20;44.00;;
66459;Laerm;70605;52.550;4.730;2023-12-07T00:09:47;43.15;42.21;43.96;;
66459;Laerm;70605;52.550;4.730;2023-12-07T00:09:57;43.15;42.28;43.93;;
66459;Laerm;70605;52.550;4.730;2023-12-07T00:10:08;43.11;42.36;44.06;;
66459;Laerm;70605;52.550;4.730;2023-12-07T00:10:18;43.16;42.26;44.02;;
66459;Laerm;70605;52.550;4.730;2023-12-07T00:10:28;43.14;42.22;43.94;;
66459;Laerm;70605;52.550;4.730;2023-12-07T00:10:38;43.14;42.29;44.01;;
66459;Laerm;70605;52.550;4.730;2023-12-07T00:10:49;43.15;42.08;43.88;;
66459;Laerm;70605;52.550;4.730;2023-12-07T00:10:59;43.19;42.22;43.98;;
66459;Laerm;70605;52.550;4.730;2023-12-07T00:11:09;43.18;42.18;44.13;;
66459;Laerm;70605;52.550;4.730;2023-12-07T00:11:21;43.17;42.17;44.10;;
66459;Laerm;70605;52.550;4.730;2023-12-07T00:11:32;43.16;42.12;44.01;;
66459;Laerm;70605;52.550;4.730;2023-12-07T00:11:42;43.20;42.22;44.12;;
66459;Laerm;70605;52.550;4.730;2023-12-07T00:11:52;43.22;42.26;44.12;;
66459;Laerm;70605;52.550;4.730;2023-12-07T00:12:02;43.21;42.30;44.31;;
66459;Laerm;70605;52.550;4.730;2023-12-07T00:12:13;43.18;42.20;44.09;;
66459;Laerm;70605;52.550;4.730;2023-12-07T00:12:23;43.17;42.40;44.09;;
66459;Laerm;70605;52.550;4.730;2023-12-07T00:12:33;43.16;42.21;43.98;;
66459;Laerm;70605;52.550;4.730;2023-12-07T00:12:43;43.13;42.14;44.11;;
66459;Laerm;70605;52.550;4.730;2023-12-07T00:12:54;43.18;42.33;43.92;;
66459;Laerm;70605;52.550;4.730;2023-12-07T00:13:04;43.22;42.40;44.20;;
66459;Laerm;70605;52.550;4.730;2023-12-07T00:13:14;43.22;42.18;44.03;;
66459;Laerm;70605;52.550;4.730;2023-12-07T00:13:24;43.22;42.35;44.04;;
66459;Laerm;70605;52.550;4.730;2023-12-07T00:13:35;43.22;42.22;44.24;;
66459;Laerm;70605;52.550;4.730;2023-12-07T00:13:45;43.23;42.42;44.01;;
66459;Laerm;70605;52.550;4.730;2023-12-07T00:13:55;43.22;42.58;44.02;;
66459;Laerm;70605;52.550;4.730;2023-12-07T00:14:06;43.23;42.06;44.09;;
66459;Laerm;70605;52.550;4.730;2023-12-07T00:14:16;43.20;42.45;44.30;;
66459;Laerm;70605;52.550;4.730;2023-12-07T00:14:27;43.24;42.56;44.42;;
66459;Laerm;70605;52.550;4.730;2023-12-07T00:14:37;43.17;42.17;44.09;;
66459;Laerm;70605;52.550;4.730;2023-12-07T00:14:47;43.13;42.30;43.89;;
66459;Laerm;70605;52.550;4.730;2023-12-07T00:14:57;43.20;42.39;44.03;;
66459;Laerm;70605;52.550;4.730;2023-12-07T00:15:08;43.19;42.30;44.05;;
66459;Laerm;70605;52.550;4.730;2023-12-07T00:15:18;43.16;41.94;43.99;;
66459;Laerm;70605;52.550;4.730;2023-12-07T00:15:28;43.14;42.31;43.99;;
66459;Laerm;70605;52.550;4.730;2023-12-07T00:15:39;43.16;42.22;44.01;;
66459;Laerm;70605;52.550;4.730;2023-12-07T00:15:49;43.17;42.04;44.22;;
66459;Laerm;70605;52.550;4.730;2023-12-07T00:15:59;43.15;42.40;43.92;;
66459;Laerm;70605;52.550;4.730;2023-12-07T00:16:09;43.16;42.45;43.97;;
66459;Laerm;70605;52.550;4.730;2023-12-07T00:16:20;43.14;42.12;44.06;;
66459;Laerm;70605;52.550;4.730;2023-12-07T00:16:30;43.13;42.28;44.05;;
66459;Laerm;70605;52.550;4.730;2023-12-07T00:16:40;43.14;42.31;43.92;;
66459;Laerm;70605;52.550;4.730;2023-12-07T00:16:50;43.13;42.08;44.23;;
66459;Laerm;70605;52.550;4.730;2023-12-07T00:17:01;43.15;42.03;44.02;;
66459;Laerm;70605;52.550;4.730;2023-12-07T00:17:11;43.12;42.30;43.96;;
66459;Laerm;70605;52.550;4.730;2023-12-07T00:17:21;43.19;42.19;44.16;;
66459;Laerm;70605;52.550;4.730;2023-12-07T00:17:31;43.14;42.38;43.94;;
66459;Laerm;70605;52.550;4.730;2023-12-07T00:17:42;43.16;42.39;43.96;;
66459;Laerm;70605;52.550;4.730;2023-12-07T00:17:52;43.14;42.32;43.93;;
66459;Laerm;70605;52.550;4.730;2023-12-07T00:18:03;43.16;42.22;44.06;;
66459;Laerm;70605;52.550;4.730;2023-12-07T00:18:13;43.20;42.37;43.93;;
66459;Laerm;70605;52.550;4.730;2023-12-07T00:18:24;43.15;42.24;44.24;;
66459;Laerm;70605;52.550;4.730;2023-12-07T00:18:34;43.18;42.23;43.98;;
66459;Laerm;70605;52.550;4.730;2023-12-07T00:18:44;43.17;42.17;43.94;;
66459;Laerm;70605;52.550;4.730;2023-12-07T00:18:55;43.19;42.28;44.10;;
66459;Laerm;70605;52.550;4.730;2023-12-07T00:19:05;43.18;42.45;43.87;;
66459;Laerm;70605;52.550;4.730;2023-12-07T00:19:15;43.14;42.23;43.95;;
66459;Laerm;70605;52.550;4.730;2023-12-07T00:19:25;43.17;42.24;43.93;;
66459;Laerm;70605;52.550;4.730;2023-12-07T00:19:35;43.14;42.33;43.86;;
66459;Laerm;70605;52.550;4.730;2023-12-07T00:19:46;43.23;42.36;43.89;;
66459;Laerm;70605;52.550;4.730;2023-12-07T00:19:56;43.23;42.34;44.89;;
66459;Laerm;70605;52.550;4.730;2023-12-07T00:20:06;43.19;42.18;43.99;;
66459;Laerm;70605;52.550;4.730;2023-12-07T00:20:17;43.19;42.36;44.08;;
66459;Laerm;70605;52.550;4.730;2023-12-07T00:20:27;43.21;42.30;43.96;;
66459;Laerm;70605;52.550;4.730;2023-12-07T00:20:38;43.22;42.39;44.18;;
66459;Laerm;70605;52.550;4.730;2023-12-07T00:20:48;43.23;42.05;44.09;;
66459;Laerm;70605;52.550;4.730;2023-12-07T00:20:58;43.18;42.14;44.05;;
66459;Laerm;70605;52.550;4.730;2023-12-07T00:21:08;43.17;42.39;44.09;;
66459;Laerm;70605;52.550;4.730;2023-12-07T00:21:21;43.17;42.44;44.11;;
66459;Laerm;70605;52.550;4.730;2023-12-07T00:21:31;43.18;42.34;44.04;;
66459;Laerm;70605;52.550;4.730;2023-12-07T00:21:42;43.14;42.20;44.00;;
66459;Laerm;70605;52.550;4.730;2023-12-07T00:21:52;43.20;42.31;44.21;;
66459;Laerm;70605;52.550;4.730;2023-12-07T00:22:02;43.18;42.18;43.85;;
66459;Laerm;70605;52.550;4.730;2023-12-07T00:22:13;43.19;42.35;44.07;;
66459;Laerm;70605;52.550;4.730;2023-12-07T00:22:23;43.21;42.30;44.12;;
66459;Laerm;70605;52.550;4.730;2023-12-07T00:22:35;43.20;42.25;44.08;;
66459;Laerm;70605;52.550;4.730;2023-12-07T00:22:45;43.22;42.33;43.99;;
66459;Laerm;70605;52.550;4.730;2023-12-07T00:22:56;43.26;42.29;44.04;;
66459;Laerm;70605;52.550;4.730;2023-12-07T00:23:06;43.28;42.29;44.15;;
66459;Laerm;70605;52.550;4.730;2023-12-07T00:23:16;43.25;42.31;44.28;;
66459;Laerm;70605;52.550;4.730;2023-12-07T00:23:27;43.22;42.19;44.24;;
66459;Laerm;70605;52.550;4.730;2023-12-07T00:23:37;43.18;41.99;43.93;;
66459;Laerm;70605;52.550;4.730;2023-12-07T00:23:48;43.25;42.43;44.05;;
66459;Laerm;70605;52.550;4.730;2023-12-07T00:23:58;43.24;42.39;44.07;;
66459;Laerm;70605;52.550;4.730;2023-12-07T00:24:08;43.17;42.36;44.04;;
66459;Laerm;70605;52.550;4.730;2023-12-07T00:24:19;43.19;42.16;44.10;;
66459;Laerm;70605;52.550;4.730;2023-12-07T00:24:29;43.22;42.30;43.97;;
66459;Laerm;70605;52.550;4.730;2023-12-07T00:24:40;43.19;42.33;44.12;;
66459;Laerm;70605;52.550;4.730;2023-12-07T00:24:50;43.18;42.28;44.25;;
66459;Laerm;70605;52.550;4.730;2023-12-07T00:25:01;43.20;42.43;43.95;;
66459;Laerm;70605;52.550;4.730;2023-12-07T00:25:11;43.17;42.45;43.91;;
66459;Laerm;70605;52.550;4.730;2023-12-07T00:25:21;43.20;42.21;43.92;;
66459;Laerm;70605;52.550;4.730;2023-12-07T00:25:32;43.28;42.45;43.99;;
66459;Laerm;70605;52.550;4.730;2023-12-07T00:25:42;43.34;42.41;44.59;;
66459;Laerm;70605;52.550;4.730;2023-12-07T00:25:52;43.31;42.48;44.11;;
66459;Laerm;70605;52.550;4.730;2023-12-07T00:26:03;43.30;42.32;44.16;;
66459;Laerm;70605;52.550;4.730;2023-12-07T00:26:13;43.23;42.44;44.00;;
66459;Laerm;70605;52.550;4.730;2023-12-07T00:26:24;43.23;42.11;44.11;;
66459;Laerm;70605;52.550;4.730;2023-12-07T00:26:34;43.26;42.16;44.06;;
66459;Laerm;70605;52.550;4.730;2023-12-07T00:26:44;43.25;42.50;44.08;;
66459;Laerm;70605;52.550;4.730;2023-12-07T00:26:54;43.21;42.40;44.09;;
66459;Laerm;70605;52.550;4.730;2023-12-07T00:27:06;43.21;42.21;44.14;;
66459;Laerm;70605;52.550;4.730;2023-12-07T00:27:16;43.25;42.50;44.41;;
66459;Laerm;70605;52.550;4.730;2023-12-07T00:27:26;43.26;42.03;44.05;;
66459;Laerm;70605;52.550;4.730;2023-12-07T00:27:36;43.22;42.33;44.01;;
66459;Laerm;70605;52.550;4.730;2023-12-07T00:27:47;43.21;42.40;44.00;;
66459;Laerm;70605;52.550;4.730;2023-12-07T00:27:57;43.25;42.47;44.09;;
66459;Laerm;70605;52.550;4.730;2023-12-07T00:28:08;43.22;42.43;44.11;;
66459;Laerm;70605;52.550;4.730;2023-12-07T00:28:18;43.22;42.36;43.91;;
66459;Laerm;70605;52.550;4.730;2023-12-07T00:28:28;43.28;42.43;44.27;;
66459;Laerm;70605;52.550;4.730;2023-12-07T00:28:38;43.20;42.46;43.96;;
66459;Laerm;70605;52.550;4.730;2023-12-07T00:28:49;43.23;42.45;44.07;;
66459;Laerm;70605;52.550;4.730;2023-12-07T00:28:59;43.28;42.36;44.10;;
66459;Laerm;70605;52.550;4.730;2023-12-07T00:29:09;43.24;42.21;44.05;;
66459;Laerm;70605;52.550;4.730;2023-12-07T00:29:20;43.20;42.21;44.00;;
66459;Laerm;70605;52.550;4.730;2023-12-07T00:29:30;43.22;42.33;44.20;;
66459;Laerm;70605;52.550;4.730;2023-12-07T00:29:41;43.27;42.25;44.15;;
66459;Laerm;70605;52.550;4.730;2023-12-07T00:29:51;43.23;42.29;44.06;;
66459;Laerm;70605;52.550;4.730;2023-12-07T00:30:02;43.28;42.45;44.07;;
66459;Laerm;70605;52.550;4.730;2023-12-07T00:30:13;43.25;42.57;44.12;;
66459;Laerm;70605;52.550;4.730;2023-12-07T00:30:23;43.24;42.44;43.93;;
66459;Laerm;70605;52.550;4.730;2023-12-07T00:30:34;43.25;42.34;44.16;;
66459;Laerm;70605;52.550;4.730;2023-12-07T00:30:44;43.26;42.44;44.15;;
66459;Laerm;70605;52.550;4.730;2023-12-07T00:30:54;43.23;42.29;44.04;;
66459;Laerm;70605;52.550;4.730;2023-12-07T00:31:05;43.24;42.20;43.88;;
66459;Laerm;70605;52.550;4.730;2023-12-07T00:31:15;43.24;42.31;43.97;;
66459;Laerm;70605;52.550;4.730;2023-12-07T00:31:25;43.30;42.33;44.10;;
66459;Laerm;70605;52.550;4.730;2023-12-07T00:31:36;43.28;42.42;44.15;;
66459;Laerm;70605;52.550;4.730;2023-12-07T00:31:46;43.29;42.54;44.24;;
66459;Laerm;70605;52.550;4.730;2023-12-07T00:31:56;43.26;42.42;44.11;;
66459;Laerm;70605;52.550;4.730;2023-12-07T00:32:06;43.28;42.47;44.12;;
66459;Laerm;70605;52.550;4.730;2023-12-07T00:32:17;43.26;42.49;43.87;;
66459;Laerm;70605;52.550;4.730;2023-12-07T00:32:27;43.24;42.41;44.35;;
66459;Laerm;70605;52.550;4.730;2023-12-07T00:32:37;43.26;42.47;44.12;;
66459;Laerm;70605;52.550;4.730;2023-12-07T00:32:48;43.27;42.40;43.99;;
66459;Laerm;70605;52.550;4.730;2023-12-07T00:32:58;43.29;42.34;43.96;;
66459;Laerm;70605;52.550;4.730;2023-12-07T00:33:09;43.26;42.37;44.22;;
66459;Laerm;70605;52.550;4.730;2023-12-07T00:33:19;43.24;42.46;43.99;;
66459;Laerm;70605;52.550;4.730;2023-12-07T00:33:31;43.22;42.41;44.03;;
66459;Laerm;70605;52.550;4.730;2023-12-07T00:33:42;43.23;42.50;44.04;;
66459;Laerm;70605;52.550;4.730;2023-12-07T00:33:53;43.19;42.44;43.95;;
66459;Laerm;70605;52.550;4.730;2023-12-07T00:34:04;43.23;42.27;44.03;;
66459;Laerm;70605;52.550;4.730;2023-12-07T00:34:14;43.24;42.39;44.16;;
66459;Laerm;70605;52.550;4.730;2023-12-07T00:34:24;43.22;42.15;44.06;;
66459;Laerm;70605;52.550;4.730;2023-12-07T00:34:34;43.28;42.24;44.04;;
66459;Laerm;70605;52.550;4.730;2023-12-07T00:34:45;43.24;42.11;44.22;;
66459;Laerm;70605;52.550;4.730;2023-12-07T00:34:56;43.27;42.36;44.11;;
66459;Laerm;70605;52.550;4.730;2023-12-07T00:35:06;43.26;42.05;43.97;;
66459;Laerm;70605;52.550;4.730;2023-12-07T00:35:17;43.33;42.32;44.49;;
66459;Laerm;70605;52.550;4.730;2023-12-07T00:35:31;43.28;42.18;44.03;;
66459;Laerm;70605;52.550;4.730;2023-12-07T00:35:42;43.32;42.51;43.98;;
66459;Laerm;70605;52.550;4.730;2023-12-07T00:35:52;43.30;42.27;44.13;;
66459;Laerm;70605;52.550;4.730;2023-12-07T00:36:03;43.25;42.26;44.05;;
66459;Laerm;70605;52.550;4.730;2023-12-07T00:36:14;43.26;42.40;44.18;;
66459;Laerm;70605;52.550;4.730;2023-12-07T00:36:24;43.31;42.49;43.96;;
66459;Laerm;70605;52.550;4.730;2023-12-07T00:36:34;43.32;42.62;44.00;;
66459;Laerm;70605;52.550;4.730;2023-12-07T00:36:44;43.28;42.42;44.16;;
66459;Laerm;70605;52.550;4.730;2023-12-07T00:36:55;43.26;42.39;44.27;;
66459;Laerm;70605;52.550;4.730;2023-12-07T00:37:05;43.25;42.33;44.17;;
66459;Laerm;70605;52.550;4.730;2023-12-07T00:37:15;43.29;42.38;44.09;;
66459;Laerm;70605;52.550;4.730;2023-12-07T00:37:26;43.26;42.37;44.18;;
66459;Laerm;70605;52.550;4.730;2023-12-07T00:37:37;43.24;42.37;44.11;;
66459;Laerm;70605;52.550;4.730;2023-12-07T00:37:47;43.25;42.25;44.18;;
66459;Laerm;70605;52.550;4.730;2023-12-07T00:37:58;43.32;42.51;44.24;;
66459;Laerm;70605;52.550;4.730;2023-12-07T00:38:08;43.28;42.38;43.93;;
66459;Laerm;70605;52.550;4.730;2023-12-07T00:38:18;43.32;42.49;44.17;;
66459;Laerm;70605;52.550;4.730;2023-12-07T00:38:29;43.29;42.34;44.11;;
66459;Laerm;70605;52.550;4.730;2023-12-07T00:38:39;43.31;42.35;45.02;;
66459;Laerm;70605;52.550;4.730;2023-12-07T00:38:49;43.27;42.34;44.21;;
66459;Laerm;70605;52.550;4.730;2023-12-07T00:39:00;43.27;42.46;44.03;;
66459;Laerm;70605;52.550;4.730;2023-12-07T00:39:10;43.29;42.23;44.00;;
66459;Laerm;70605;52.550;4.730;2023-12-07T00:39:21;43.29;42.53;44.29;;
66459;Laerm;70605;52.550;4.730;2023-12-07T00:39:31;43.33;42.43;44.11;;
66459;Laerm;70605;52.550;4.730;2023-12-07T00:39:41;43.28;42.37;44.14;;
66459;Laerm;70605;52.550;4.730;2023-12-07T00:39:51;43.32;42.50;44.27;;
66459;Laerm;70605;52.550;4.730;2023-12-07T00:40:02;43.33;42.31;44.11;;
66459;Laerm;70605;52.550;4.730;2023-12-07T00:40:13;43.32;42.40;44.26;;
66459;Laerm;70605;52.550;4.730;2023-12-07T00:40:24;43.32;42.25;44.13;;
66459;Laerm;70605;52.550;4.730;2023-12-07T00:40:34;43.30;42.24;44.25;;
66459;Laerm;70605;52.550;4.730;2023-12-07T00:40:47;43.33;42.34;44.03;;
66459;Laerm;70605;52.550;4.730;2023-12-07T00:40:57;43.31;42.49;44.13;;
66459;Laerm;70605;52.550;4.730;2023-12-07T00:41:07;43.28;42.49;44.17;;
66459;Laerm;70605;52.550;4.730;2023-12-07T00:41:18;43.30;42.49;44.20;;
66459;Laerm;70605;52.550;4.730;2023-12-07T00:41:28;43.35;42.10;44.46;;
66459;Laerm;70605;52.550;4.730;2023-12-07T00:41:38;43.36;42.51;44.08;;
66459;Laerm;70605;52.550;4.730;2023-12-07T00:41:48;43.34;42.53;44.29;;
66459;Laerm;70605;52.550;4.730;2023-12-07T00:41:59;43.31;42.24;44.01;;
66459;Laerm;70605;52.550;4.730;2023-12-07T00:42:09;43.32;42.66;44.25;;
66459;Laerm;70605;52.550;4.730;2023-12-07T00:42:19;43.30;42.48;44.00;;
66459;Laerm;70605;52.550;4.730;2023-12-07T00:42:30;43.30;42.53;44.13;;
66459;Laerm;70605;52.550;4.730;2023-12-07T00:42:40;43.31;42.62;43.90;;
66459;Laerm;70605;52.550;4.730;2023-12-07T00:42:50;43.36;42.52;44.27;;
66459;Laerm;70605;52.550;4.730;2023-12-07T00:43:00;43.28;42.42;44.07;;
66459;Laerm;70605;52.550;4.730;2023-12-07T00:43:11;43.30;42.30;44.16;;
66459;Laerm;70605;52.550;4.730;2023-12-07T00:43:22;43.36;42.55;44.22;;
66459;Laerm;70605;52.550;4.730;2023-12-07T00:43:32;43.31;42.41;44.20;;
66459;Laerm;70605;52.550;4.730;2023-12-07T00:43:42;43.32;42.40;44.21;;
66459;Laerm;70605;52.550;4.730;2023-12-07T00:43:53;43.35;42.55;44.08;;
66459;Laerm;70605;52.550;4.730;2023-12-07T00:44:03;43.40;42.34;44.70;;
66459;Laerm;70605;52.550;4.730;2023-12-07T00:44:13;43.33;42.64;44.16;;
66459;Laerm;70605;52.550;4.730;2023-12-07T00:44:24;43.35;42.59;44.16;;
66459;Laerm;70605;52.550;4.730;2023-12-07T00:44:38;43.34;42.65;44.34;;
66459;Laerm;70605;52.550;4.730;2023-12-07T00:44:49;43.32;42.47;44.25;;
66459;Laerm;70605;52.550;4.730;2023-12-07T00:44:59;43.27;42.37;44.22;;
66459;Laerm;70605;52.550;4.730;2023-12-07T00:45:11;43.31;42.43;43.99;;
66459;Laerm;70605;52.550;4.730;2023-12-07T00:45:21;43.29;42.56;44.07;;
66459;Laerm;70605;52.550;4.730;2023-12-07T00:45:31;43.26;42.40;44.05;;
66459;Laerm;70605;52.550;4.730;2023-12-07T00:45:42;43.24;42.48;43.96;;
66459;Laerm;70605;52.550;4.730;2023-12-07T00:45:52;43.27;42.41;44.18;;
66459;Laerm;70605;52.550;4.730;2023-12-07T00:46:02;43.24;42.28;44.10;;
66459;Laerm;70605;52.550;4.730;2023-12-07T00:46:13;43.26;42.44;43.98;;
66459;Laerm;70605;52.550;4.730;2023-12-07T00:46:23;43.31;42.52;45.64;;
66459;Laerm;70605;52.550;4.730;2023-12-07T00:46:33;43.29;42.40;44.14;;
66459;Laerm;70605;52.550;4.730;2023-12-07T00:46:43;43.25;42.36;44.13;;
66459;Laerm;70605;52.550;4.730;2023-12-07T00:46:54;43.25;42.34;44.16;;
66459;Laerm;70605;52.550;4.730;2023-12-07T00:47:04;43.27;42.13;44.12;;
66459;Laerm;70605;52.550;4.730;2023-12-07T00:47:15;43.30;42.49;44.00;;
66459;Laerm;70605;52.550;4.730;2023-12-07T00:47:25;43.22;42.43;44.00;;
66459;Laerm;70605;52.550;4.730;2023-12-07T00:47:35;43.24;42.17;44.01;;
66459;Laerm;70605;52.550;4.730;2023-12-07T00:47:45;43.26;42.40;44.07;;
66459;Laerm;70605;52.550;4.730;2023-12-07T00:47:56;43.26;42.50;44.21;;
66459;Laerm;70605;52.550;4.730;2023-12-07T00:48:06;43.25;42.42;44.35;;
66459;Laerm;70605;52.550;4.730;2023-12-07T00:48:16;43.25;42.44;44.21;;
66459;Laerm;70605;52.550;4.730;2023-12-07T00:48:27;43.23;42.19;44.31;;
66459;Laerm;70605;52.550;4.730;2023-12-07T00:48:37;43.26;42.31;44.16;;
66459;Laerm;70605;52.550;4.730;2023-12-07T00:48:47;43.28;42.46;43.95;;
66459;Laerm;70605;52.550;4.730;2023-12-07T00:48:57;43.25;42.37;44.15;;
66459;Laerm;70605;52.550;4.730;2023-12-07T00:49:08;43.28;42.33;44.06;;
66459;Laerm;70605;52.550;4.730;2023-12-07T00:49:18;43.26;42.18;44.16;;
66459;Laerm;70605;52.550;4.730;2023-12-07T00:49:28;43.26;42.13;43.90;;
66459;Laerm;70605;52.550;4.730;2023-12-07T00:49:39;43.26;42.35;44.12;;
66459;Laerm;70605;52.550;4.730;2023-12-07T00:49:52;43.28;42.51;44.15;;
66459;Laerm;70605;52.550;4.730;2023-12-07T00:50:03;43.28;42.09;43.92;;
66459;Laerm;70605;52.550;4.730;2023-12-07T00:50:13;43.29;42.20;44.12;;
66459;Laerm;70605;52.550;4.730;2023-12-07T00:50:24;43.30;42.58;43.99;;
66459;Laerm;70605;52.550;4.730;2023-12-07T00:50:34;43.30;42.43;44.10;;
66459;Laerm;70605;52.550;4.730;2023-12-07T00:50:45;43.34;42.40;44.24;;
66459;Laerm;70605;52.550;4.730;2023-12-07T00:50:55;43.31;42.36;44.18;;
66459;Laerm;70605;52.550;4.730;2023-12-07T00:51:05;43.29;42.39;44.03;;
66459;Laerm;70605;52.550;4.730;2023-12-07T00:51:16;43.28;42.44;44.30;;
66459;Laerm;70605;52.550;4.730;2023-12-07T00:51:27;43.34;42.41;44.11;;
66459;Laerm;70605;52.550;4.730;2023-12-07T00:51:37;43.29;42.36;44.21;;
66459;Laerm;70605;52.550;4.730;2023-12-07T00:51:47;43.28;42.47;44.51;;
66459;Laerm;70605;52.550;4.730;2023-12-07T00:51:58;43.28;42.23;43.94;;
66459;Laerm;70605;52.550;4.730;2023-12-07T00:52:08;43.29;42.18;44.09;;
66459;Laerm;70605;52.550;4.730;2023-12-07T00:52:18;43.25;42.23;44.13;;
66459;Laerm;70605;52.550;4.730;2023-12-07T00:52:29;43.28;42.39;44.36;;
66459;Laerm;70605;52.550;4.730;2023-12-07T00:52:39;43.31;42.51;44.15;;
66459;Laerm;70605;52.550;4.730;2023-12-07T00:52:49;43.24;42.37;43.92;;
66459;Laerm;70605;52.550;4.730;2023-12-07T00:52:59;43.22;42.36;44.04;;
66459;Laerm;70605;52.550;4.730;2023-12-07T00:53:10;43.28;42.39;44.10;;
66459;Laerm;70605;52.550;4.730;2023-12-07T00:53:20;43.29;42.44;44.09;;
66459;Laerm;70605;52.550;4.730;2023-12-07T00:53:30;43.33;42.16;44.10;;
66459;Laerm;70605;52.550;4.730;2023-12-07T00:53:41;43.31;42.39;44.03;;
66459;Laerm;70605;52.550;4.730;2023-12-07T00:53:51;43.28;42.27;44.14;;
66459;Laerm;70605;52.550;4.730;2023-12-07T00:54:01;43.27;42.45;44.15;;
66459;Laerm;70605;52.550;4.730;2023-12-07T00:54:13;43.31;42.41;44.24;;
66459;Laerm;70605;52.550;4.730;2023-12-07T00:54:23;43.29;42.28;44.21;;
66459;Laerm;70605;52.550;4.730;2023-12-07T00:54:34;43.28;42.25;44.06;;
66459;Laerm;70605;52.550;4.730;2023-12-07T00:54:44;43.29;42.43;44.15;;
66459;Laerm;70605;52.550;4.730;2023-12-07T00:54:54;43.28;42.63;44.00;;
66459;Laerm;70605;52.550;4.730;2023-12-07T00:55:05;43.28;42.47;44.24;;
66459;Laerm;70605;52.550;4.730;2023-12-07T00:55:15;43.27;42.28;44.14;;
66459;Laerm;70605;52.550;4.730;2023-12-07T00:55:26;43.33;42.46;44.12;;
66459;Laerm;70605;52.550;4.730;2023-12-07T00:55:36;43.25;42.37;44.15;;
66459;Laerm;70605;52.550;4.730;2023-12-07T00:55:46;43.26;42.55;44.29;;
66459;Laerm;70605;52.550;4.730;2023-12-07T00:55:56;43.24;42.33;44.16;;
66459;Laerm;70605;52.550;4.730;2023-12-07T00:56:07;43.24;42.25;44.33;;
66459;Laerm;70605;52.550;4.730;2023-12-07T00:56:17;43.23;42.44;44.05;;
66459;Laerm;70605;52.550;4.730;2023-12-07T00:56:27;43.27;42.46;44.10;;
66459;Laerm;70605;52.550;4.730;2023-12-07T00:56:38;43.22;42.40;44.27;;
66459;Laerm;70605;52.550;4.730;2023-12-07T00:56:48;43.27;42.35;44.13;;
66459;Laerm;70605;52.550;4.730;2023-12-07T00:56:58;43.24;42.41;44.08;;
66459;Laerm;70605;52.550;4.730;2023-12-07T00:57:08;43.25;42.33;44.14;;
66459;Laerm;70605;52.550;4.730;2023-12-07T00:57:19;43.25;42.51;43.91;;
66459;Laerm;70605;52.550;4.730;2023-12-07T00:57:29;43.24;42.40;43.90;;
66459;Laerm;70605;52.550;4.730;2023-12-07T00:57:39;43.27;42.35;44.13;;
66459;Laerm;70605;52.550;4.730;2023-12-07T00:57:50;43.22;42.39;44.13;;
66459;Laerm;70605;52.550;4.730;2023-12-07T00:58:00;43.25;41.97;44.17;;
66459;Laerm;70605;52.550;4.730;2023-12-07T00:58:11;43.23;42.24;44.08;;
66459;Laerm;70605;52.550;4.730;2023-12-07T00:58:22;43.25;42.45;44.17;;